VND1022 LIPZ-LIME
Flight info
| Callsign | VND1022 |
|---|---|
| Flight time | N/A |
| Altitude | 19000 |
| Route | VIC8X/04R VIC L615 IBUGO/N0419F180 L615 OSKOR |
| Aircraft | C700/M-SBDGHM1RWXY/LB2 |
Departure
| Time | 2026-05-06 14:17 |
|---|---|
| Airport | Venice Marco Polo Airport (LIPZ) |
Arrival
| Time | N/A |
|---|---|
| Airport | Il Caravaggio International Airport (LIME) |
| Time | Latitude | Longitude | Altitude | Speed | Heading |
|---|---|---|---|---|---|
| 2026-05-06 14:03 | 45.50811 | 12.34323 | 37 ft | 0 kts | 222° |
| 2026-05-06 14:08 | 45.50819 | 12.34333 | 10 ft | 4 kts | 221° |
| 2026-05-06 14:08 | 45.50840 | 12.34356 | 10 ft | 4 kts | 208° |
| 2026-05-06 14:08 | 45.50864 | 12.34368 | 10 ft | 4 kts | 170° |
| 2026-05-06 14:08 | 45.50878 | 12.34359 | 10 ft | 1 kts | 132° |
| 2026-05-06 14:09 | 45.50879 | 12.34356 | 10 ft | 0 kts | 132° |
| 2026-05-06 14:11 | 45.50877 | 12.34360 | 10 ft | 4 kts | 132° |
| 2026-05-06 14:11 | 45.50845 | 12.34411 | 10 ft | 9 kts | 132° |
| 2026-05-06 14:11 | 45.50796 | 12.34487 | 10 ft | 12 kts | 131° |
| 2026-05-06 14:11 | 45.50733 | 12.34586 | 10 ft | 15 kts | 132° |
| 2026-05-06 14:12 | 45.50659 | 12.34704 | 10 ft | 9 kts | 130° |
| 2026-05-06 14:12 | 45.50643 | 12.34728 | 10 ft | 10 kts | 131° |
| 2026-05-06 14:12 | 45.50576 | 12.34715 | 10 ft | 13 kts | 219° |
| 2026-05-06 14:12 | 45.50503 | 12.34621 | 10 ft | 16 kts | 222° |
| 2026-05-06 14:13 | 45.50415 | 12.34508 | 10 ft | 19 kts | 222° |
| 2026-05-06 14:13 | 45.50316 | 12.34381 | 11 ft | 19 kts | 221° |
| 2026-05-06 14:13 | 45.50223 | 12.34362 | 11 ft | 15 kts | 176° |
| 2026-05-06 14:13 | 45.50115 | 12.34327 | 10 ft | 18 kts | 219° |
| 2026-05-06 14:14 | 45.50006 | 12.34187 | 8 ft | 24 kts | 222° |
| 2026-05-06 14:14 | 45.49866 | 12.34007 | 8 ft | 30 kts | 221° |
| 2026-05-06 14:14 | 45.49707 | 12.33803 | 10 ft | 32 kts | 222° |
| 2026-05-06 14:14 | 45.49569 | 12.33623 | 11 ft | 18 kts | 222° |
| 2026-05-06 14:15 | 45.49499 | 12.33619 | 11 ft | 5 kts | 137° |
| 2026-05-06 14:15 | 45.49498 | 12.33621 | 11 ft | 0 kts | 137° |
| 2026-05-06 14:16 | 45.49485 | 12.33639 | 10 ft | 7 kts | 135° |
| 2026-05-06 14:16 | 45.49429 | 12.33729 | 9 ft | 15 kts | 122° |
| 2026-05-06 14:16 | 45.49478 | 12.33857 | 9 ft | 18 kts | 42° |
| 2026-05-06 14:16 | 45.49605 | 12.34022 | 8 ft | 55 kts | 42° |
| 2026-05-06 14:17 | 45.50133 | 12.34705 | 10 ft | 145 kts | 41° |
| 2026-05-06 14:17 | 45.51072 | 12.35794 | 375 ft | 198 kts | 38° |
| 2026-05-06 14:17 | 45.52107 | 12.37107 | 1581 ft | 201 kts | 54° |
| 2026-05-06 14:17 | 45.52932 | 12.38772 | 2884 ft | 211 kts | 58° |
| 2026-05-06 14:18 | 45.53491 | 12.40787 | 3911 ft | 237 kts | 79° |
| 2026-05-06 14:18 | 45.53438 | 12.43167 | 4806 ft | 232 kts | 103° |
| 2026-05-06 14:18 | 45.53166 | 12.45342 | 6515 ft | 221 kts | 103° |
| 2026-05-06 14:18 | 45.52924 | 12.47551 | 7803 ft | 229 kts | 102° |
| 2026-05-06 14:19 | 45.52655 | 12.49776 | 9101 ft | 232 kts | 114° |
| 2026-05-06 14:19 | 45.51746 | 12.51711 | 9878 ft | 248 kts | 142° |
| 2026-05-06 14:19 | 45.50231 | 12.52737 | 9885 ft | 237 kts | 174° |
| 2026-05-06 14:19 | 45.48666 | 12.52592 | 9878 ft | 219 kts | 200° |
| 2026-05-06 14:20 | 45.47400 | 12.51538 | 9877 ft | 206 kts | 222° |
| 2026-05-06 14:20 | 45.46387 | 12.50157 | 9853 ft | 200 kts | 236° |
| 2026-05-06 14:20 | 45.46314 | 12.48094 | 9919 ft | 235 kts | 277° |
| 2026-05-06 14:20 | 45.46799 | 12.45716 | 10628 ft | 264 kts | 283° |
| 2026-05-06 14:21 | 45.47384 | 12.43097 | 11436 ft | 291 kts | 282° |
| 2026-05-06 14:21 | 45.48003 | 12.40230 | 12442 ft | 308 kts | 282° |
| 2026-05-06 14:21 | 45.48636 | 12.37327 | 13838 ft | 314 kts | 282° |
| 2026-05-06 14:21 | 45.49295 | 12.34316 | 15009 ft | 321 kts | 282° |
| 2026-05-06 14:22 | 45.49959 | 12.31257 | 16224 ft | 326 kts | 282° |
| 2026-05-06 14:22 | 45.50632 | 12.28140 | 17384 ft | 332 kts | 282° |
| 2026-05-06 14:22 | 45.51323 | 12.24959 | 18426 ft | 339 kts | 282° |
| 2026-05-06 14:22 | 45.52030 | 12.21657 | 18874 ft | 366 kts | 281° |
| 2026-05-06 14:23 | 45.52804 | 12.17995 | 18930 ft | 403 kts | 282° |
| 2026-05-06 14:23 | 45.53675 | 12.14110 | 18919 ft | 415 kts | 283° |
| 2026-05-06 14:23 | 45.54563 | 12.10231 | 18921 ft | 408 kts | 283° |
| 2026-05-06 14:23 | 45.55400 | 12.06372 | 18907 ft | 408 kts | 282° |
| 2026-05-06 14:24 | 45.56201 | 12.02561 | 18904 ft | 405 kts | 282° |
| 2026-05-06 14:24 | 45.57031 | 11.98707 | 18903 ft | 407 kts | 282° |
| 2026-05-06 14:24 | 45.57877 | 11.94842 | 18903 ft | 409 kts | 282° |
| 2026-05-06 14:24 | 45.58722 | 11.90955 | 18903 ft | 410 kts | 282° |
| 2026-05-06 14:25 | 45.59537 | 11.87056 | 18897 ft | 407 kts | 279° |
| 2026-05-06 14:25 | 45.59433 | 11.83212 | 18777 ft | 387 kts | 239° |
| 2026-05-06 14:25 | 45.57108 | 11.82438 | 17088 ft | 426 kts | 140° |
| 2026-05-06 14:25 | 45.57209 | 11.86318 | 15849 ft | 446 kts | 41° |
| 2026-05-06 14:26 | 45.59296 | 11.85584 | 13286 ft | 0 kts | 263° |
| 2026-05-06 14:26 | 45.58730 | 11.82692 | 13946 ft | 334 kts | 235° |
| 2026-05-06 14:26 | 45.56923 | 11.81901 | 13252 ft | 280 kts | 167° |
| 2026-05-06 14:26 | 45.54969 | 11.81260 | 12888 ft | 295 kts | 199° |
| 2026-05-06 14:27 | 45.53294 | 11.81366 | 12387 ft | 341 kts | 163° |
| 2026-05-06 14:27 | 45.52268 | 11.84268 | 11315 ft | 361 kts | 85° |
| 2026-05-06 14:27 | 45.52574 | 11.83339 | 5922 ft | 423 kts | 230° |
| 2026-05-06 14:27 | 45.50651 | 11.83804 | 2776 ft | 349 kts | 51° |
| 2026-05-06 14:28 | 45.52081 | 11.81532 | 2163 ft | 388 kts | 248° |
| 2026-05-06 14:28 | 45.50751 | 11.80259 | 63 ft | 0 kts | 315° |
| 2026-05-06 14:28 | 45.50836 | 11.80138 | 69 ft | 0 kts | 315° |
| 2026-05-06 14:29 | 45.50836 | 11.80137 | 69 ft | 0 kts | 315° |